sensor_id;sensor_type;location;lat;lon;timestamp;temperature;humidity
12335;DHT22;6233;51.560;9.986;2022-08-21T00:00:29;17.30;99.90
12335;DHT22;6233;51.560;9.986;2022-08-21T00:03:34;17.30;99.90
12335;DHT22;6233;51.560;9.986;2022-08-21T00:06:37;17.20;99.90
12335;DHT22;6233;51.560;9.986;2022-08-21T00:09:39;17.20;99.90
12335;DHT22;6233;51.560;9.986;2022-08-21T00:12:41;17.20;99.90
12335;DHT22;6233;51.560;9.986;2022-08-21T00:15:43;17.20;99.90
12335;DHT22;6233;51.560;9.986;2022-08-21T00:18:45;17.20;99.90
12335;DHT22;6233;51.560;9.986;2022-08-21T00:21:47;17.10;99.90
12335;DHT22;6233;51.560;9.986;2022-08-21T00:24:49;17.10;99.90
12335;DHT22;6233;51.560;9.986;2022-08-21T00:27:51;17.20;99.90
12335;DHT22;6233;51.560;9.986;2022-08-21T00:30:53;17.10;99.90
12335;DHT22;6233;51.560;9.986;2022-08-21T00:33:55;17.00;99.90
12335;DHT22;6233;51.560;9.986;2022-08-21T00:37:01;17.00;99.90
12335;DHT22;6233;51.560;9.986;2022-08-21T00:40:04;17.00;99.90
12335;DHT22;6233;51.560;9.986;2022-08-21T00:43:09;17.00;99.90
12335;DHT22;6233;51.560;9.986;2022-08-21T00:46:10;17.00;99.90
12335;DHT22;6233;51.560;9.986;2022-08-21T00:49:13;16.80;99.90
12335;DHT22;6233;51.560;9.986;2022-08-21T00:52:20;16.70;99.90
12335;DHT22;6233;51.560;9.986;2022-08-21T00:55:24;16.70;99.90
12335;DHT22;6233;51.560;9.986;2022-08-21T00:58:27;16.60;99.90
12335;DHT22;6233;51.560;9.986;2022-08-21T01:01:29;16.50;99.90
12335;DHT22;6233;51.560;9.986;2022-08-21T01:04:31;16.50;99.90
12335;DHT22;6233;51.560;9.986;2022-08-21T01:07:33;16.50;99.90
12335;DHT22;6233;51.560;9.986;2022-08-21T01:10:36;16.50;99.90
12335;DHT22;6233;51.560;9.986;2022-08-21T01:13:39;16.60;99.90
12335;DHT22;6233;51.560;9.986;2022-08-21T01:16:50;16.50;99.90
12335;DHT22;6233;51.560;9.986;2022-08-21T01:19:56;16.50;99.90
12335;DHT22;6233;51.560;9.986;2022-08-21T01:23:04;16.50;99.90
12335;DHT22;6233;51.560;9.986;2022-08-21T01:26:07;16.80;99.90
12335;DHT22;6233;51.560;9.986;2022-08-21T01:32:29;16.50;99.90
12335;DHT22;6233;51.560;9.986;2022-08-21T01:35:31;16.50;99.90
12335;DHT22;6233;51.560;9.986;2022-08-21T01:38:33;16.50;99.90
12335;DHT22;6233;51.560;9.986;2022-08-21T01:41:35;16.40;99.90
12335;DHT22;6233;51.560;9.986;2022-08-21T01:44:37;16.40;99.90
12335;DHT22;6233;51.560;9.986;2022-08-21T01:47:39;16.50;99.90
12335;DHT22;6233;51.560;9.986;2022-08-21T01:50:40;16.70;99.90
12335;DHT22;6233;51.560;9.986;2022-08-21T01:53:42;16.20;99.90
12335;DHT22;6233;51.560;9.986;2022-08-21T01:56:48;16.20;99.90
12335;DHT22;6233;51.560;9.986;2022-08-21T01:59:51;16.50;99.90
12335;DHT22;6233;51.560;9.986;2022-08-21T02:02:53;16.20;99.90
12335;DHT22;6233;51.560;9.986;2022-08-21T02:05:55;16.20;99.90
12335;DHT22;6233;51.560;9.986;2022-08-21T02:08:57;16.20;99.90
12335;DHT22;6233;51.560;9.986;2022-08-21T02:11:59;16.10;99.90
12335;DHT22;6233;51.560;9.986;2022-08-21T02:15:03;16.10;99.90
12335;DHT22;6233;51.560;9.986;2022-08-21T02:18:05;16.10;99.90
12335;DHT22;6233;51.560;9.986;2022-08-21T02:21:08;16.20;99.90
12335;DHT22;6233;51.560;9.986;2022-08-21T02:24:11;16.00;99.90
12335;DHT22;6233;51.560;9.986;2022-08-21T02:27:13;15.80;99.90
12335;DHT22;6233;51.560;9.986;2022-08-21T02:30:18;15.90;99.90
12335;DHT22;6233;51.560;9.986;2022-08-21T02:33:21;15.80;99.90
12335;DHT22;6233;51.560;9.986;2022-08-21T02:36:23;15.70;99.90
12335;DHT22;6233;51.560;9.986;2022-08-21T02:39:24;15.70;99.90
12335;DHT22;6233;51.560;9.986;2022-08-21T02:42:28;15.70;99.90
12335;DHT22;6233;51.560;9.986;2022-08-21T02:45:31;15.70;99.90
12335;DHT22;6233;51.560;9.986;2022-08-21T02:48:33;15.70;99.90
12335;DHT22;6233;51.560;9.986;2022-08-21T02:51:35;15.70;99.90
12335;DHT22;6233;51.560;9.986;2022-08-21T02:54:37;15.70;99.90
12335;DHT22;6233;51.560;9.986;2022-08-21T02:57:38;15.70;99.90
12335;DHT22;6233;51.560;9.986;2022-08-21T03:00:44;15.70;99.90
12335;DHT22;6233;51.560;9.986;2022-08-21T03:03:47;15.70;99.90
12335;DHT22;6233;51.560;9.986;2022-08-21T03:06:51;15.70;99.90
12335;DHT22;6233;51.560;9.986;2022-08-21T03:09:52;15.70;99.90
12335;DHT22;6233;51.560;9.986;2022-08-21T03:12:56;15.70;99.90
12335;DHT22;6233;51.560;9.986;2022-08-21T03:15:59;15.70;99.90
12335;DHT22;6233;51.560;9.986;2022-08-21T03:19:01;15.70;99.90
12335;DHT22;6233;51.560;9.986;2022-08-21T03:22:03;15.60;99.90
12335;DHT22;6233;51.560;9.986;2022-08-21T03:25:06;15.60;99.90
12335;DHT22;6233;51.560;9.986;2022-08-21T03:28:17;15.60;99.90
12335;DHT22;6233;51.560;9.986;2022-08-21T03:31:19;15.60;99.90
12335;DHT22;6233;51.560;9.986;2022-08-21T03:34:22;15.60;99.90
12335;DHT22;6233;51.560;9.986;2022-08-21T03:37:24;15.70;99.90
12335;DHT22;6233;51.560;9.986;2022-08-21T03:40:28;15.60;99.90
12335;DHT22;6233;51.560;9.986;2022-08-21T03:43:30;15.60;99.90
12335;DHT22;6233;51.560;9.986;2022-08-21T03:46:33;15.60;99.90
12335;DHT22;6233;51.560;9.986;2022-08-21T03:49:35;15.50;99.90
12335;DHT22;6233;51.560;9.986;2022-08-21T03:52:37;15.70;99.90
12335;DHT22;6233;51.560;9.986;2022-08-21T03:55:40;15.60;99.90
12335;DHT22;6233;51.560;9.986;2022-08-21T03:58:41;15.40;99.90
12335;DHT22;6233;51.560;9.986;2022-08-21T04:01:57;15.30;99.90
12335;DHT22;6233;51.560;9.986;2022-08-21T04:05:00;15.20;99.90
12335;DHT22;6233;51.560;9.986;2022-08-21T04:08:03;15.30;99.90
12335;DHT22;6233;51.560;9.986;2022-08-21T04:11:05;15.30;99.90
12335;DHT22;6233;51.560;9.986;2022-08-21T04:14:07;15.60;99.90
12335;DHT22;6233;51.560;9.986;2022-08-21T04:17:09;15.30;99.90
12335;DHT22;6233;51.560;9.986;2022-08-21T04:20:14;15.30;99.90
12335;DHT22;6233;51.560;9.986;2022-08-21T04:23:17;15.40;99.90
12335;DHT22;6233;51.560;9.986;2022-08-21T04:26:25;15.40;99.90
12335;DHT22;6233;51.560;9.986;2022-08-21T04:29:30;15.40;99.90
12335;DHT22;6233;51.560;9.986;2022-08-21T04:32:32;15.40;99.90
12335;DHT22;6233;51.560;9.986;2022-08-21T04:35:33;15.40;99.90
12335;DHT22;6233;51.560;9.986;2022-08-21T04:38:38;15.60;99.90
12335;DHT22;6233;51.560;9.986;2022-08-21T04:41:45;15.50;99.90
12335;DHT22;6233;51.560;9.986;2022-08-21T04:44:50;15.60;99.90
12335;DHT22;6233;51.560;9.986;2022-08-21T04:47:54;15.50;99.90
12335;DHT22;6233;51.560;9.986;2022-08-21T04:51:06;15.60;99.90
12335;DHT22;6233;51.560;9.986;2022-08-21T04:54:14;15.50;99.90
12335;DHT22;6233;51.560;9.986;2022-08-21T04:57:19;15.60;99.90
12335;DHT22;6233;51.560;9.986;2022-08-21T05:00:22;15.60;99.90
12335;DHT22;6233;51.560;9.986;2022-08-21T05:03:26;15.60;99.90
12335;DHT22;6233;51.560;9.986;2022-08-21T05:06:31;15.80;99.90
12335;DHT22;6233;51.560;9.986;2022-08-21T05:09:42;15.60;99.90
12335;DHT22;6233;51.560;9.986;2022-08-21T05:12:44;15.70;99.90
12335;DHT22;6233;51.560;9.986;2022-08-21T05:15:46;15.70;99.90
12335;DHT22;6233;51.560;9.986;2022-08-21T05:18:48;15.70;99.90
12335;DHT22;6233;51.560;9.986;2022-08-21T05:21:50;15.70;99.90
12335;DHT22;6233;51.560;9.986;2022-08-21T05:24:52;15.80;99.90
12335;DHT22;6233;51.560;9.986;2022-08-21T05:27:54;15.80;99.90
12335;DHT22;6233;51.560;9.986;2022-08-21T05:30:58;15.90;99.90
12335;DHT22;6233;51.560;9.986;2022-08-21T05:34:00;16.00;99.90
12335;DHT22;6233;51.560;9.986;2022-08-21T05:37:04;16.10;99.90
12335;DHT22;6233;51.560;9.986;2022-08-21T05:40:09;16.20;99.90
12335;DHT22;6233;51.560;9.986;2022-08-21T05:43:22;16.40;99.90
12335;DHT22;6233;51.560;9.986;2022-08-21T05:46:24;16.60;99.90
12335;DHT22;6233;51.560;9.986;2022-08-21T05:49:26;16.90;99.90
12335;DHT22;6233;51.560;9.986;2022-08-21T05:52:27;17.30;99.90
12335;DHT22;6233;51.560;9.986;2022-08-21T05:55:29;17.60;99.90
12335;DHT22;6233;51.560;9.986;2022-08-21T05:58:34;17.70;99.90
12335;DHT22;6233;51.560;9.986;2022-08-21T06:01:36;17.90;99.90
12335;DHT22;6233;51.560;9.986;2022-08-21T06:04:39;17.90;99.90
12335;DHT22;6233;51.560;9.986;2022-08-21T06:07:44;17.80;99.90
12335;DHT22;6233;51.560;9.986;2022-08-21T06:10:50;17.90;99.90
12335;DHT22;6233;51.560;9.986;2022-08-21T06:13:52;17.80;99.90
12335;DHT22;6233;51.560;9.986;2022-08-21T06:17:08;17.80;99.90
12335;DHT22;6233;51.560;9.986;2022-08-21T06:20:10;17.90;99.90
12335;DHT22;6233;51.560;9.986;2022-08-21T06:23:12;18.00;99.90
12335;DHT22;6233;51.560;9.986;2022-08-21T06:26:14;18.10;99.90
12335;DHT22;6233;51.560;9.986;2022-08-21T06:29:16;18.30;99.90
12335;DHT22;6233;51.560;9.986;2022-08-21T06:32:21;18.10;99.90
12335;DHT22;6233;51.560;9.986;2022-08-21T06:35:23;18.30;99.90
12335;DHT22;6233;51.560;9.986;2022-08-21T06:38:25;18.40;99.90
12335;DHT22;6233;51.560;9.986;2022-08-21T06:41:27;18.50;99.90
12335;DHT22;6233;51.560;9.986;2022-08-21T06:44:30;18.70;99.90
12335;DHT22;6233;51.560;9.986;2022-08-21T06:47:32;19.10;99.90
12335;DHT22;6233;51.560;9.986;2022-08-21T06:50:34;19.60;99.90
12335;DHT22;6233;51.560;9.986;2022-08-21T06:53:39;20.00;99.90
12335;DHT22;6233;51.560;9.986;2022-08-21T06:56:40;20.30;99.90
12335;DHT22;6233;51.560;9.986;2022-08-21T06:59:42;20.60;99.90
12335;DHT22;6233;51.560;9.986;2022-08-21T07:02:44;20.80;99.90
12335;DHT22;6233;51.560;9.986;2022-08-21T07:05:46;21.10;99.90
12335;DHT22;6233;51.560;9.986;2022-08-21T07:08:48;21.50;99.90
12335;DHT22;6233;51.560;9.986;2022-08-21T07:11:51;21.90;99.90
12335;DHT22;6233;51.560;9.986;2022-08-21T07:14:53;22.10;99.90
12335;DHT22;6233;51.560;9.986;2022-08-21T07:17:55;22.10;99.90
12335;DHT22;6233;51.560;9.986;2022-08-21T07:20:57;22.10;99.90
12335;DHT22;6233;51.560;9.986;2022-08-21T07:23:59;22.10;99.90
12335;DHT22;6233;51.560;9.986;2022-08-21T07:27:01;22.20;99.90
12335;DHT22;6233;51.560;9.986;2022-08-21T07:30:06;22.60;99.90
12335;DHT22;6233;51.560;9.986;2022-08-21T07:33:08;23.00;99.90
12335;DHT22;6233;51.560;9.986;2022-08-21T07:36:11;23.30;99.90
12335;DHT22;6233;51.560;9.986;2022-08-21T07:39:12;23.50;99.90
12335;DHT22;6233;51.560;9.986;2022-08-21T07:42:15;23.90;99.90
12335;DHT22;6233;51.560;9.986;2022-08-21T07:45:22;24.20;99.90
12335;DHT22;6233;51.560;9.986;2022-08-21T07:48:25;24.40;99.90
12335;DHT22;6233;51.560;9.986;2022-08-21T07:51:28;24.70;99.90
12335;DHT22;6233;51.560;9.986;2022-08-21T07:54:30;24.60;99.90
12335;DHT22;6233;51.560;9.986;2022-08-21T07:57:35;24.50;99.90
12335;DHT22;6233;51.560;9.986;2022-08-21T08:00:36;24.70;99.90
12335;DHT22;6233;51.560;9.986;2022-08-21T08:03:38;24.80;99.90
12335;DHT22;6233;51.560;9.986;2022-08-21T08:06:40;25.00;99.90
12335;DHT22;6233;51.560;9.986;2022-08-21T08:09:42;25.20;99.90
12335;DHT22;6233;51.560;9.986;2022-08-21T08:12:44;25.30;99.90
12335;DHT22;6233;51.560;9.986;2022-08-21T08:15:46;25.60;99.90
12335;DHT22;6233;51.560;9.986;2022-08-21T08:18:51;25.90;99.90
12335;DHT22;6233;51.560;9.986;2022-08-21T08:21:52;26.00;99.90
12335;DHT22;6233;51.560;9.986;2022-08-21T08:24:55;26.30;99.90
12335;DHT22;6233;51.560;9.986;2022-08-21T08:27:57;26.30;99.90
12335;DHT22;6233;51.560;9.986;2022-08-21T08:30:59;26.40;99.90
12335;DHT22;6233;51.560;9.986;2022-08-21T08:34:01;26.20;99.90
12335;DHT22;6233;51.560;9.986;2022-08-21T08:37:04;26.30;99.90
12335;DHT22;6233;51.560;9.986;2022-08-21T08:43:33;26.70;99.90
12335;DHT22;6233;51.560;9.986;2022-08-21T08:46:39;26.70;99.90
12335;DHT22;6233;51.560;9.986;2022-08-21T08:50:15;26.80;99.90
12335;DHT22;6233;51.560;9.986;2022-08-21T08:53:28;27.00;99.90
12335;DHT22;6233;51.560;9.986;2022-08-21T08:56:33;27.40;99.90
12335;DHT22;6233;51.560;9.986;2022-08-21T08:59:45;27.70;99.90
12335;DHT22;6233;51.560;9.986;2022-08-21T09:02:53;27.80;99.90
12335;DHT22;6233;51.560;9.986;2022-08-21T09:05:57;27.60;99.90
12335;DHT22;6233;51.560;9.986;2022-08-21T09:15:46;27.70;99.90
12335;DHT22;6233;51.560;9.986;2022-08-21T09:26:22;27.60;99.90
12335;DHT22;6233;51.560;9.986;2022-08-21T09:29:27;27.50;99.90
12335;DHT22;6233;51.560;9.986;2022-08-21T09:32:32;27.50;99.90
12335;DHT22;6233;51.560;9.986;2022-08-21T09:35:50;27.40;99.90
12335;DHT22;6233;51.560;9.986;2022-08-21T09:38:53;27.60;99.90
12335;DHT22;6233;51.560;9.986;2022-08-21T09:42:00;27.60;99.90
12335;DHT22;6233;51.560;9.986;2022-08-21T09:45:16;27.90;99.90
12335;DHT22;6233;51.560;9.986;2022-08-21T09:48:24;27.80;99.90
12335;DHT22;6233;51.560;9.986;2022-08-21T09:51:34;27.90;99.90
12335;DHT22;6233;51.560;9.986;2022-08-21T09:54:39;28.00;99.90
12335;DHT22;6233;51.560;9.986;2022-08-21T09:57:45;27.90;99.90
12335;DHT22;6233;51.560;9.986;2022-08-21T10:00:59;28.00;99.90
12335;DHT22;6233;51.560;9.986;2022-08-21T10:04:07;28.20;99.90
12335;DHT22;6233;51.560;9.986;2022-08-21T10:07:11;28.20;99.90
12335;DHT22;6233;51.560;9.986;2022-08-21T10:10:21;27.90;99.90
12335;DHT22;6233;51.560;9.986;2022-08-21T10:13:47;27.70;99.90
12335;DHT22;6233;51.560;9.986;2022-08-21T10:16:59;27.60;99.90
12335;DHT22;6233;51.560;9.986;2022-08-21T10:20:17;27.60;99.90
12335;DHT22;6233;51.560;9.986;2022-08-21T10:23:55;27.60;99.90
12335;DHT22;6233;51.560;9.986;2022-08-21T10:30:20;27.40;99.90
12335;DHT22;6233;51.560;9.986;2022-08-21T10:33:51;27.30;99.90
12335;DHT22;6233;51.560;9.986;2022-08-21T10:47:34;27.20;99.90
12335;DHT22;6233;51.560;9.986;2022-08-21T10:50:48;27.10;99.90
12335;DHT22;6233;51.560;9.986;2022-08-21T10:57:13;26.90;99.90
12335;DHT22;6233;51.560;9.986;2022-08-21T11:00:48;26.80;99.90
12335;DHT22;6233;51.560;9.986;2022-08-21T11:03:59;26.50;99.90
12335;DHT22;6233;51.560;9.986;2022-08-21T11:07:22;26.40;99.90
12335;DHT22;6233;51.560;9.986;2022-08-21T11:10:46;26.30;99.90
12335;DHT22;6233;51.560;9.986;2022-08-21T11:14:34;26.10;99.90
12335;DHT22;6233;51.560;9.986;2022-08-21T11:17:44;26.10;99.90
12335;DHT22;6233;51.560;9.986;2022-08-21T11:21:14;26.20;99.90
12335;DHT22;6233;51.560;9.986;2022-08-21T11:24:32;26.30;99.90
12335;DHT22;6233;51.560;9.986;2022-08-21T11:27:56;26.40;99.90
12335;DHT22;6233;51.560;9.986;2022-08-21T11:41:16;26.40;99.90
12335;DHT22;6233;51.560;9.986;2022-08-21T11:48:06;26.20;98.70
12335;DHT22;6233;51.560;9.986;2022-08-21T11:51:27;25.90;99.60
12335;DHT22;6233;51.560;9.986;2022-08-21T11:54:46;25.90;99.90
12335;DHT22;6233;51.560;9.986;2022-08-21T11:57:54;26.00;99.90
12335;DHT22;6233;51.560;9.986;2022-08-21T12:01:01;26.00;99.90
12335;DHT22;6233;51.560;9.986;2022-08-21T12:04:16;26.00;99.90
12335;DHT22;6233;51.560;9.986;2022-08-21T12:07:36;25.90;99.80
12335;DHT22;6233;51.560;9.986;2022-08-21T12:10:47;25.70;99.40
12335;DHT22;6233;51.560;9.986;2022-08-21T12:14:13;25.60;99.90
12335;DHT22;6233;51.560;9.986;2022-08-21T12:17:21;25.60;99.90
12335;DHT22;6233;51.560;9.986;2022-08-21T12:23:48;25.40;99.30
12335;DHT22;6233;51.560;9.986;2022-08-21T12:26:53;25.40;99.70
12335;DHT22;6233;51.560;9.986;2022-08-21T12:29:59;25.30;99.90
12335;DHT22;6233;51.560;9.986;2022-08-21T12:36:59;25.50;99.90
12335;DHT22;6233;51.560;9.986;2022-08-21T12:40:13;25.40;99.90
12335;DHT22;6233;51.560;9.986;2022-08-21T12:43:29;25.40;99.90
12335;DHT22;6233;51.560;9.986;2022-08-21T12:46:42;25.30;99.90
12335;DHT22;6233;51.560;9.986;2022-08-21T12:49:53;25.30;99.90
12335;DHT22;6233;51.560;9.986;2022-08-21T12:53:03;25.20;99.50
12335;DHT22;6233;51.560;9.986;2022-08-21T12:56:32;25.20;99.90
12335;DHT22;6233;51.560;9.986;2022-08-21T12:59:39;25.20;98.60
12335;DHT22;6233;51.560;9.986;2022-08-21T13:02:47;25.20;99.00
12335;DHT22;6233;51.560;9.986;2022-08-21T13:05:50;25.10;97.90
12335;DHT22;6233;51.560;9.986;2022-08-21T13:08:57;25.10;99.10
12335;DHT22;6233;51.560;9.986;2022-08-21T13:12:00;25.10;98.70
12335;DHT22;6233;51.560;9.986;2022-08-21T13:15:04;25.10;98.20
12335;DHT22;6233;51.560;9.986;2022-08-21T13:18:23;25.10;98.80
12335;DHT22;6233;51.560;9.986;2022-08-21T13:21:44;25.20;97.90
12335;DHT22;6233;51.560;9.986;2022-08-21T13:24:48;25.20;97.50
12335;DHT22;6233;51.560;9.986;2022-08-21T13:28:04;25.20;99.10
12335;DHT22;6233;51.560;9.986;2022-08-21T13:31:09;25.20;99.10
12335;DHT22;6233;51.560;9.986;2022-08-21T13:34:11;25.20;98.20
12335;DHT22;6233;51.560;9.986;2022-08-21T13:37:14;25.20;98.50
12335;DHT22;6233;51.560;9.986;2022-08-21T13:40:20;25.10;99.00
12335;DHT22;6233;51.560;9.986;2022-08-21T13:43:28;25.10;98.70
12335;DHT22;6233;51.560;9.986;2022-08-21T13:46:35;25.10;97.80
12335;DHT22;6233;51.560;9.986;2022-08-21T13:49:39;25.10;96.30
12335;DHT22;6233;51.560;9.986;2022-08-21T13:52:55;25.20;96.50
12335;DHT22;6233;51.560;9.986;2022-08-21T13:55:59;25.20;98.30
12335;DHT22;6233;51.560;9.986;2022-08-21T13:59:02;25.10;97.40
12335;DHT22;6233;51.560;9.986;2022-08-21T14:02:13;25.10;97.00
12335;DHT22;6233;51.560;9.986;2022-08-21T14:05:26;25.10;98.10
12335;DHT22;6233;51.560;9.986;2022-08-21T14:08:34;25.00;97.70
12335;DHT22;6233;51.560;9.986;2022-08-21T14:11:37;25.00;98.00
12335;DHT22;6233;51.560;9.986;2022-08-21T14:14:40;25.00;98.10
12335;DHT22;6233;51.560;9.986;2022-08-21T14:17:44;25.00;97.20
12335;DHT22;6233;51.560;9.986;2022-08-21T14:20:46;25.00;96.70
12335;DHT22;6233;51.560;9.986;2022-08-21T14:23:48;24.90;97.30
12335;DHT22;6233;51.560;9.986;2022-08-21T14:27:05;24.80;97.80
12335;DHT22;6233;51.560;9.986;2022-08-21T14:30:20;24.80;98.00
12335;DHT22;6233;51.560;9.986;2022-08-21T14:33:31;24.80;98.20
12335;DHT22;6233;51.560;9.986;2022-08-21T14:36:33;24.80;97.90
12335;DHT22;6233;51.560;9.986;2022-08-21T14:39:35;24.80;97.60
12335;DHT22;6233;51.560;9.986;2022-08-21T14:42:38;24.80;98.30
12335;DHT22;6233;51.560;9.986;2022-08-21T14:45:41;24.80;98.40
12335;DHT22;6233;51.560;9.986;2022-08-21T14:48:42;24.80;98.20
12335;DHT22;6233;51.560;9.986;2022-08-21T14:51:44;24.70;98.50
12335;DHT22;6233;51.560;9.986;2022-08-21T14:54:55;24.80;98.50
12335;DHT22;6233;51.560;9.986;2022-08-21T14:57:57;24.80;98.90
12335;DHT22;6233;51.560;9.986;2022-08-21T15:00:59;24.90;98.60
12335;DHT22;6233;51.560;9.986;2022-08-21T15:04:05;24.90;98.30
12335;DHT22;6233;51.560;9.986;2022-08-21T15:07:06;24.90;98.40
12335;DHT22;6233;51.560;9.986;2022-08-21T15:10:08;24.80;97.50
12335;DHT22;6233;51.560;9.986;2022-08-21T15:13:10;24.80;97.80
12335;DHT22;6233;51.560;9.986;2022-08-21T15:16:13;24.70;97.60
12335;DHT22;6233;51.560;9.986;2022-08-21T15:19:14;24.70;98.30
12335;DHT22;6233;51.560;9.986;2022-08-21T15:22:16;24.70;97.90
12335;DHT22;6233;51.560;9.986;2022-08-21T15:25:28;24.70;98.60
12335;DHT22;6233;51.560;9.986;2022-08-21T15:28:30;24.70;98.40
12335;DHT22;6233;51.560;9.986;2022-08-21T15:31:32;24.70;98.10
12335;DHT22;6233;51.560;9.986;2022-08-21T15:34:34;24.70;98.20
12335;DHT22;6233;51.560;9.986;2022-08-21T15:37:37;24.70;98.20
12335;DHT22;6233;51.560;9.986;2022-08-21T15:40:40;24.70;99.20
12335;DHT22;6233;51.560;9.986;2022-08-21T15:43:53;24.70;98.70
12335;DHT22;6233;51.560;9.986;2022-08-21T15:46:56;24.70;97.50
12335;DHT22;6233;51.560;9.986;2022-08-21T15:49:58;24.70;96.90
12335;DHT22;6233;51.560;9.986;2022-08-21T15:53:00;24.70;97.10
12335;DHT22;6233;51.560;9.986;2022-08-21T15:56:02;24.70;96.30
12335;DHT22;6233;51.560;9.986;2022-08-21T15:59:07;24.70;96.70
12335;DHT22;6233;51.560;9.986;2022-08-21T16:02:14;24.70;97.10
12335;DHT22;6233;51.560;9.986;2022-08-21T16:05:16;24.70;98.20
12335;DHT22;6233;51.560;9.986;2022-08-21T16:08:19;24.70;99.90
12335;DHT22;6233;51.560;9.986;2022-08-21T16:11:21;24.70;99.90
12335;DHT22;6233;51.560;9.986;2022-08-21T16:14:23;24.60;99.90
12335;DHT22;6233;51.560;9.986;2022-08-21T16:17:29;24.60;99.90
12335;DHT22;6233;51.560;9.986;2022-08-21T16:20:31;24.60;99.90
12335;DHT22;6233;51.560;9.986;2022-08-21T16:23:34;24.50;99.90
12335;DHT22;6233;51.560;9.986;2022-08-21T16:26:36;24.40;99.90
12335;DHT22;6233;51.560;9.986;2022-08-21T16:29:41;24.30;99.90
12335;DHT22;6233;51.560;9.986;2022-08-21T16:32:43;24.20;99.90
12335;DHT22;6233;51.560;9.986;2022-08-21T16:35:45;24.20;99.90
12335;DHT22;6233;51.560;9.986;2022-08-21T16:38:48;24.10;99.90
12335;DHT22;6233;51.560;9.986;2022-08-21T16:41:50;24.10;99.90
12335;DHT22;6233;51.560;9.986;2022-08-21T16:44:55;24.00;99.90
12335;DHT22;6233;51.560;9.986;2022-08-21T16:47:57;24.00;99.90
12335;DHT22;6233;51.560;9.986;2022-08-21T16:50:59;24.00;99.90
12335;DHT22;6233;51.560;9.986;2022-08-21T16:54:11;23.90;99.90
12335;DHT22;6233;51.560;9.986;2022-08-21T16:57:14;23.80;99.90
12335;DHT22;6233;51.560;9.986;2022-08-21T17:00:16;23.80;99.90
12335;DHT22;6233;51.560;9.986;2022-08-21T17:03:19;23.70;99.90
12335;DHT22;6233;51.560;9.986;2022-08-21T17:06:23;23.70;99.90
12335;DHT22;6233;51.560;9.986;2022-08-21T17:09:29;23.70;99.90
12335;DHT22;6233;51.560;9.986;2022-08-21T17:12:32;23.60;99.90
12335;DHT22;6233;51.560;9.986;2022-08-21T17:15:36;23.60;99.90
12335;DHT22;6233;51.560;9.986;2022-08-21T17:18:40;23.50;99.90
12335;DHT22;6233;51.560;9.986;2022-08-21T17:21:42;23.50;99.90
12335;DHT22;6233;51.560;9.986;2022-08-21T17:24:43;23.50;99.90
12335;DHT22;6233;51.560;9.986;2022-08-21T17:27:47;23.40;99.90
12335;DHT22;6233;51.560;9.986;2022-08-21T17:30:54;23.40;99.90
12335;DHT22;6233;51.560;9.986;2022-08-21T17:33:56;23.30;99.90
12335;DHT22;6233;51.560;9.986;2022-08-21T17:36:58;23.30;99.90
12335;DHT22;6233;51.560;9.986;2022-08-21T17:40:02;23.30;99.90
12335;DHT22;6233;51.560;9.986;2022-08-21T17:43:07;23.20;99.90
12335;DHT22;6233;51.560;9.986;2022-08-21T17:46:18;23.20;99.90
12335;DHT22;6233;51.560;9.986;2022-08-21T17:49:20;23.20;99.90
12335;DHT22;6233;51.560;9.986;2022-08-21T17:52:22;23.10;99.90
12335;DHT22;6233;51.560;9.986;2022-08-21T17:55:24;23.10;99.90
12335;DHT22;6233;51.560;9.986;2022-08-21T17:58:28;23.00;99.90
12335;DHT22;6233;51.560;9.986;2022-08-21T18:01:34;22.90;99.90
12335;DHT22;6233;51.560;9.986;2022-08-21T18:04:41;22.90;99.90
12335;DHT22;6233;51.560;9.986;2022-08-21T18:07:43;22.80;99.90
12335;DHT22;6233;51.560;9.986;2022-08-21T18:10:46;22.70;99.90
12335;DHT22;6233;51.560;9.986;2022-08-21T18:13:58;22.70;99.90
12335;DHT22;6233;51.560;9.986;2022-08-21T18:17:09;22.60;99.90
12335;DHT22;6233;51.560;9.986;2022-08-21T18:20:13;22.50;99.90
12335;DHT22;6233;51.560;9.986;2022-08-21T18:23:16;22.50;99.90
12335;DHT22;6233;51.560;9.986;2022-08-21T18:26:28;22.40;99.90
12335;DHT22;6233;51.560;9.986;2022-08-21T18:29:31;22.40;99.90
12335;DHT22;6233;51.560;9.986;2022-08-21T18:32:47;22.30;99.90
12335;DHT22;6233;51.560;9.986;2022-08-21T18:35:52;22.30;99.90
12335;DHT22;6233;51.560;9.986;2022-08-21T18:38:56;22.20;99.90
12335;DHT22;6233;51.560;9.986;2022-08-21T18:42:18;22.20;99.90
12335;DHT22;6233;51.560;9.986;2022-08-21T18:45:23;22.20;99.90
12335;DHT22;6233;51.560;9.986;2022-08-21T18:48:25;22.10;99.90
12335;DHT22;6233;51.560;9.986;2022-08-21T18:51:29;22.00;99.90
12335;DHT22;6233;51.560;9.986;2022-08-21T18:54:32;22.00;99.90
12335;DHT22;6233;51.560;9.986;2022-08-21T18:57:38;21.90;99.90
12335;DHT22;6233;51.560;9.986;2022-08-21T19:00:44;21.90;99.90
12335;DHT22;6233;51.560;9.986;2022-08-21T19:03:51;21.90;99.90
12335;DHT22;6233;51.560;9.986;2022-08-21T19:06:52;21.90;99.90
12335;DHT22;6233;51.560;9.986;2022-08-21T19:09:54;21.80;99.90
12335;DHT22;6233;51.560;9.986;2022-08-21T19:13:18;21.80;99.90
12335;DHT22;6233;51.560;9.986;2022-08-21T19:16:21;21.70;99.90
12335;DHT22;6233;51.560;9.986;2022-08-21T19:19:23;21.70;99.90
12335;DHT22;6233;51.560;9.986;2022-08-21T19:22:24;21.60;99.90
12335;DHT22;6233;51.560;9.986;2022-08-21T19:25:27;21.60;99.90
12335;DHT22;6233;51.560;9.986;2022-08-21T19:28:37;21.50;99.90
12335;DHT22;6233;51.560;9.986;2022-08-21T19:31:41;21.50;99.90
12335;DHT22;6233;51.560;9.986;2022-08-21T19:34:43;21.50;99.90
12335;DHT22;6233;51.560;9.986;2022-08-21T19:37:45;21.50;99.90
12335;DHT22;6233;51.560;9.986;2022-08-21T19:40:49;21.40;99.90
12335;DHT22;6233;51.560;9.986;2022-08-21T19:43:54;21.30;99.90
12335;DHT22;6233;51.560;9.986;2022-08-21T19:46:57;21.30;99.90
12335;DHT22;6233;51.560;9.986;2022-08-21T19:50:06;21.30;99.90
12335;DHT22;6233;51.560;9.986;2022-08-21T19:53:19;21.20;99.90
12335;DHT22;6233;51.560;9.986;2022-08-21T19:56:24;21.10;99.90
12335;DHT22;6233;51.560;9.986;2022-08-21T19:59:26;21.10;99.90
12335;DHT22;6233;51.560;9.986;2022-08-21T20:02:28;21.10;99.90
12335;DHT22;6233;51.560;9.986;2022-08-21T20:05:30;21.00;99.90
12335;DHT22;6233;51.560;9.986;2022-08-21T20:08:41;20.90;99.90
12335;DHT22;6233;51.560;9.986;2022-08-21T20:11:51;20.90;99.90
12335;DHT22;6233;51.560;9.986;2022-08-21T20:14:54;20.80;99.90
12335;DHT22;6233;51.560;9.986;2022-08-21T20:17:55;20.80;99.90
12335;DHT22;6233;51.560;9.986;2022-08-21T20:20:57;20.80;99.90
12335;DHT22;6233;51.560;9.986;2022-08-21T20:23:59;20.70;99.90
12335;DHT22;6233;51.560;9.986;2022-08-21T20:27:02;20.70;99.90
12335;DHT22;6233;51.560;9.986;2022-08-21T20:30:08;20.60;99.90
12335;DHT22;6233;51.560;9.986;2022-08-21T20:33:11;20.60;99.90
12335;DHT22;6233;51.560;9.986;2022-08-21T20:36:19;20.60;99.90
12335;DHT22;6233;51.560;9.986;2022-08-21T20:39:22;20.50;99.90
12335;DHT22;6233;51.560;9.986;2022-08-21T20:42:24;20.50;99.90
12335;DHT22;6233;51.560;9.986;2022-08-21T20:45:31;20.50;99.90
12335;DHT22;6233;51.560;9.986;2022-08-21T20:48:36;20.40;99.90